Blountstown, FL

7:51 PM CDT on September 20, 2014 (GMT -0500)
KFLBLOUN2 | Change Station
CLOSE
Current Station
Personal Weather Station
Location: Blountstown, FL
Elevation: 76 ft
Nearby Weather Stations

Elev 76 ft 30.52 °N, 85.04 °W | Updated 6 seconds ago

Mostly Cloudy
Mostly Cloudy
73.9 °F
Feels Like 73 °F
N
0.0
Wind Variable Wind from NNE
Gusts 0.0 mph

Today
High -- | Low -- °F
--% Chance of Precip.
Yesterday
High -- | Low -- °F
Precip. -- in
6:27 AM 6:39 PM
Waning Crescent, 9% visible
Pressure 29.96 in
Visibility 10.0 miles
Clouds Overcast 6500 ft
Heat Index 73 °F
Dew Point 69 °F
Humidity 86%
Rainfall 0.00 in
Snow Depth Not available.
UV 0 out of 12
Pollen 9.00 out of 12
Air Quality Not available.
Flu Activity Not available.
METAR KMAI 202353Z AUTO 02003KT 10SM OVC065 26/22 A2996 RMK AO2 SLP143 T02560217 10289 20256 53002

More Conditions Fewer Conditions

Pressure 29.96 in
Visibility 10.0 miles
Clouds Overcast 6500 ft
Heat Index 73 °F
Dew Point 69 °F
Humidity 86%
Rainfall 0.00 in
Snow Depth Not available.
UV 0 out of 12
Pollen 9.00 out of 12
Air Quality Not available.
Flu Activity Not available.
METAR KMAI 202353Z AUTO 02003KT 10SM OVC065 26/22 A2996 RMK AO2 SLP143 T02560217 10289 20256 53002

More Conditions Fewer Conditions

10-Day Weather Forecast

Almanac

Astronomy

Sep. 20, 2014 Rise Set
Actual Time 6:27 AM CDT 6:39 PM CDT
Civil Twilight 6:03 AM CDT 7:03 PM CDT
Nautical Twilight 5:35 AM CDT 7:31 PM CDT
Astronomical Twilight 5:07 AM CDT 7:59 PM CDT
Moon 3:17 AM CDT (9/20) 4:32 PM CDT (9/20)
Length of Visible Light 12h 59m
Length of Day
12h 11m
Tomorrow will be 1m 49s shorter.
Waning Crescent, 9% of the Moon is Illuminated
Today
Waning Crescent
Sep 24
New
Oct 1
First Quarter
Oct 8
Full
Oct 15
Last Quarter

Today's Extremes

State Highs State Lows

Community

WunderPhotos

Upload Photos

1,755,000 photos uploaded!

WunderBlogs® & News

Nearby

Snow Depth

Station Depth Elevation
No new snow has been reported.

Earthquake Activity

City Distance Mag. Time & Date
No recent earthquake activity has been reported nearby.
Minimum magnitude displayed is 2.5.

Coastal Water Temperatures

Place Temperature
No Stations Reporting

Nearby Weather Stations